createdAt,value
2023-08-25T00:02:17.045Z,100340.81
2023-08-25T00:04:44.883Z,100307.56
2023-08-25T00:07:12.572Z,100296.53
2023-08-25T00:09:40.259Z,100257.06
2023-08-25T00:12:09.591Z,100245.25
2023-08-25T00:14:38.630Z,100232.16
2023-08-25T00:17:06.917Z,100251.28
2023-08-25T00:19:34.666Z,100241.50
2023-08-25T00:22:04.096Z,100238.59
2023-08-25T00:24:33.461Z,100228.84
2023-08-25T00:27:02.089Z,100236.94
2023-08-25T00:29:32.885Z,100225.75
2023-08-25T00:32:01.215Z,100231.16
2023-08-25T00:34:30.072Z,100233.22
2023-08-25T00:36:58.686Z,100239.44
2023-08-25T00:39:26.719Z,100249.84
2023-08-25T00:41:57.212Z,100261.03
2023-08-25T00:44:30.093Z,100272.66
2023-08-25T00:47:01.543Z,100285.34
2023-08-25T00:49:30.089Z,100302.59
2023-08-25T00:52:00.083Z,100305.50
2023-08-25T00:54:31.588Z,100295.94
2023-08-25T00:57:00.247Z,100292.41
2023-08-25T00:59:30.204Z,100294.50
2023-08-25T01:01:58.268Z,100293.84
2023-08-25T01:04:27.534Z,100295.94
2023-08-25T01:06:56.082Z,100307.16
2023-08-25T01:09:25.064Z,100313.78
2023-08-25T01:12:06.101Z,100314.22
2023-08-25T01:14:43.425Z,100313.78
2023-08-25T01:17:17.232Z,100318.72
2023-08-25T01:19:58.107Z,100338.66
2023-08-25T01:22:35.969Z,100348.81
2023-08-25T01:25:26.463Z,100348.81
2023-08-25T01:27:58.075Z,100338.63
2023-08-25T01:30:28.761Z,100327.00
2023-08-25T01:32:56.812Z,100325.56
2023-08-25T01:35:33.066Z,100339.25
2023-08-25T01:38:10.526Z,100338.63
2023-08-25T01:40:44.309Z,100333.22
2023-08-25T01:43:16.192Z,100340.69
2023-08-25T01:45:43.963Z,100343.19
2023-08-25T01:48:13.969Z,100351.06
2023-08-25T01:50:43.090Z,100338.59
2023-08-25T01:53:11.211Z,100339.44
2023-08-25T01:55:41.045Z,100337.78
2023-08-25T01:58:08.781Z,100343.78
2023-08-25T02:00:36.543Z,100344.19
2023-08-25T02:03:05.106Z,100339.19
2023-08-25T02:05:33.297Z,100347.50
2023-08-25T02:08:06.873Z,100343.31
2023-08-25T02:10:35.367Z,100342.69
2023-08-25T02:13:04.839Z,100335.84
2023-08-25T02:15:36.835Z,100336.03
2023-08-25T02:18:07.171Z,100327.31
2023-08-25T02:20:40.004Z,100325.88
2023-08-25T02:23:08.757Z,100320.03
2023-08-25T02:25:37.089Z,100320.44
2023-08-25T02:28:07.432Z,100320.84
2023-08-25T02:30:35.232Z,100319.38
2023-08-25T02:33:05.017Z,100320.63
2023-08-25T02:35:33.074Z,100311.91
2023-08-25T02:38:26.809Z,100298.81
2023-08-25T02:40:54.546Z,100304.44
2023-08-25T02:43:26.951Z,100299.25
2023-08-25T02:45:55.154Z,100304.81
2023-08-25T02:48:22.877Z,100299.00
2023-08-25T02:50:51.443Z,100284.88
2023-08-25T02:53:21.061Z,100284.06
2023-08-25T02:55:49.110Z,100283.66
2023-08-25T02:58:17.683Z,100283.00
2023-08-25T03:00:48.141Z,100276.38
2023-08-25T03:03:16.168Z,100274.84
2023-08-25T03:05:44.551Z,100280.66
2023-08-25T03:08:16.372Z,100280.22
2023-08-25T03:10:47.197Z,100278.56
2023-08-25T03:13:17.669Z,100273.53
2023-08-25T03:15:53.246Z,100264.84
2023-08-25T03:18:25.105Z,100267.75
2023-08-25T03:20:54.195Z,100257.19
2023-08-25T03:23:26.712Z,100262.13
2023-08-25T03:25:54.924Z,100255.28
2023-08-25T03:28:22.648Z,100252.16
2023-08-25T03:30:53.985Z,100256.25
2023-08-25T03:33:24.646Z,100262.06
2023-08-25T03:35:53.448Z,100264.31
2023-08-25T03:38:26.273Z,100262.03
2023-08-25T03:40:59.763Z,100258.88
2023-08-25T03:43:27.751Z,100263.66
2023-08-25T03:45:56.846Z,100255.94
2023-08-25T03:48:26.108Z,100253.66
2023-08-25T03:50:55.172Z,100249.69
2023-08-25T03:53:24.216Z,100253.41
2023-08-25T03:55:53.572Z,100250.28
2023-08-25T03:58:25.125Z,100244.47
2023-08-25T04:00:54.247Z,100243.00
2023-08-25T04:03:24.359Z,100242.56
2023-08-25T04:05:52.248Z,100237.56
2023-08-25T04:08:20.030Z,100237.97
2023-08-25T04:10:49.129Z,100238.97
2023-08-25T04:13:17.696Z,100234.63
2023-08-25T04:15:45.739Z,100235.88
2023-08-25T04:18:13.774Z,100235.22
2023-08-25T04:20:43.777Z,100229.19
2023-08-25T04:23:11.533Z,100233.97
2023-08-25T04:25:39.392Z,100237.69
2023-08-25T04:28:08.103Z,100229.16
2023-08-25T04:30:38.214Z,100230.19
2023-08-25T04:33:15.042Z,100232.22
2023-08-25T04:35:44.167Z,100233.44
2023-08-25T04:38:12.120Z,100233.63
2023-08-25T04:40:40.462Z,100233.84
2023-08-25T04:43:11.041Z,100228.81
2023-08-25T04:45:39.183Z,100229.84
2023-08-25T04:48:07.539Z,100223.00
2023-08-25T04:50:36.047Z,100225.88
2023-08-25T04:53:05.714Z,100219.03
2023-08-25T04:55:34.283Z,100226.47
2023-08-25T04:58:02.016Z,100226.66
2023-08-25T05:00:30.502Z,100232.03
2023-08-25T05:02:59.236Z,100235.75
2023-08-25T05:05:27.619Z,100232.03
2023-08-25T05:07:58.084Z,100229.56
2023-08-25T05:10:28.673Z,100227.91
2023-08-25T05:12:57.229Z,100234.09
2023-08-25T05:15:25.884Z,100235.97
2023-08-25T05:17:53.977Z,100229.75
2023-08-25T05:20:22.886Z,100222.69
2023-08-25T05:22:52.142Z,100227.06
2023-08-25T05:25:24.140Z,100229.75
2023-08-25T05:27:54.501Z,100235.13
2023-08-25T05:30:23.624Z,100236.78
2023-08-25T05:32:55.364Z,100238.44
2023-08-25T05:35:42.135Z,100229.16
2023-08-25T05:38:11.662Z,100227.13
2023-08-25T05:40:40.104Z,100233.75
2023-08-25T05:43:09.225Z,100228.81
2023-08-25T05:45:41.219Z,100233.63
2023-08-25T05:48:09.158Z,100223.97
2023-08-25T05:50:38.104Z,100227.09
2023-08-25T05:53:09.092Z,100236.25
2023-08-25T05:55:37.590Z,100230.91
2023-08-25T05:58:06.097Z,100233.22
2023-08-25T06:00:36.100Z,100232.81
2023-08-25T06:03:05.459Z,100239.47
2023-08-25T06:05:33.712Z,100243.03
2023-08-25T06:08:01.529Z,100229.59
2023-08-25T06:10:33.086Z,100231.72
2023-08-25T06:13:03.662Z,100218.50
2023-08-25T06:15:31.606Z,100204.22
2023-08-25T06:18:01.085Z,100202.22
2023-08-25T06:20:29.036Z,100208.47
2023-08-25T06:22:58.115Z,100213.44
2023-08-25T06:25:29.255Z,100203.13
2023-08-25T06:27:58.246Z,100205.28
2023-08-25T06:30:27.609Z,100204.25
2023-08-25T06:32:55.407Z,100208.44
2023-08-25T06:35:25.061Z,100216.13
2023-08-25T06:37:53.046Z,100213.84
2023-08-25T06:40:21.611Z,100217.81
2023-08-25T06:42:50.261Z,100217.22
2023-08-25T06:45:19.118Z,100212.03
2023-08-25T06:47:47.284Z,100208.94
2023-08-25T06:50:15.861Z,100196.50
2023-08-25T06:52:46.106Z,100191.31
2023-08-25T06:55:13.838Z,100204.13
2023-08-25T06:57:41.608Z,100199.13
2023-08-25T07:00:10.640Z,100213.66
2023-08-25T07:02:40.815Z,100212.00
2023-08-25T07:05:10.154Z,100218.19
2023-08-25T07:07:39.061Z,100227.09
2023-08-25T07:10:09.350Z,100222.53
2023-08-25T07:12:38.257Z,100215.00
2023-08-25T07:15:07.110Z,100203.97
2023-08-25T07:17:36.312Z,100206.03
2023-08-25T07:20:05.461Z,100202.25
2023-08-25T07:22:33.336Z,100209.50
2023-08-25T07:25:01.255Z,100204.88
2023-08-25T07:27:31.121Z,100186.53
2023-08-25T07:29:59.797Z,100190.19
2023-08-25T07:32:28.757Z,100191.13
2023-08-25T07:34:58.452Z,100214.78
2023-08-25T07:37:27.269Z,100222.22
2023-08-25T07:39:56.345Z,100222.34
2023-08-25T07:42:24.386Z,100209.38
2023-08-25T07:44:54.228Z,100217.22
2023-08-25T07:47:22.688Z,100213.84
2023-08-25T07:49:50.778Z,100207.97
2023-08-25T07:52:19.228Z,100207.16
2023-08-25T07:54:47.709Z,100216.94
2023-08-25T07:57:15.483Z,100222.34
2023-08-25T07:59:47.108Z,100226.94
2023-08-25T08:02:17.942Z,100224.47
2023-08-25T08:04:45.680Z,100207.38
2023-08-25T08:07:13.545Z,100223.84
2023-08-25T08:09:42.255Z,100241.34
2023-08-25T08:12:10.356Z,100233.47
2023-08-25T08:14:45.518Z,100251.00
2023-08-25T08:17:15.926Z,100265.78
2023-08-25T08:19:45.884Z,100277.06
2023-08-25T08:22:13.767Z,100272.06
2023-08-25T08:24:50.495Z,100280.44
2023-08-25T08:27:20.211Z,100282.53
2023-08-25T08:29:49.008Z,100302.72
2023-08-25T08:32:17.757Z,100307.53
2023-08-25T08:34:46.939Z,100311.31
2023-08-25T08:37:14.909Z,100289.03
2023-08-25T08:39:43.166Z,100301.94
2023-08-25T08:42:14.487Z,100304.06
2023-08-25T08:44:46.494Z,100296.53
2023-08-25T08:47:15.846Z,100293.25
2023-08-25T08:49:45.198Z,100279.56
2023-08-25T08:52:14.428Z,100272.47
2023-08-25T08:54:43.559Z,100268.75
2023-08-25T08:57:12.802Z,100268.22
2023-08-25T08:59:41.134Z,100280.94
2023-08-25T09:02:12.239Z,100296.16
2023-08-25T09:04:42.208Z,100260.34
2023-08-25T09:07:13.069Z,100237.75
2023-08-25T09:09:47.872Z,100226.53
2023-08-25T09:12:20.015Z,100180.16
2023-08-25T09:14:53.607Z,100207.44
2023-08-25T09:17:23.391Z,100228.88
2023-08-25T09:19:51.340Z,100240.13
2023-08-25T09:22:20.585Z,100226.00
2023-08-25T09:24:50.154Z,100210.63
2023-08-25T09:27:26.179Z,100217.91
2023-08-25T09:30:00.888Z,100217.50
2023-08-25T09:32:32.956Z,100225.22
2023-08-25T09:35:12.483Z,100230.84
2023-08-25T09:37:43.180Z,100243.69
2023-08-25T09:40:16.270Z,100246.38
2023-08-25T09:42:44.841Z,100237.69
2023-08-25T09:45:14.253Z,100221.47
2023-08-25T09:47:44.634Z,100202.56
2023-08-25T09:50:15.088Z,100207.97
2023-08-25T09:52:46.341Z,100236.63
2023-08-25T09:55:18.160Z,100247.22
2023-08-25T09:57:49.548Z,100264.28
2023-08-25T10:00:18.612Z,100253.28
2023-08-25T10:02:47.335Z,100241.22
2023-08-25T10:05:16.724Z,100226.25
2023-08-25T10:07:45.248Z,100237.44
2023-08-25T10:10:13.302Z,100259.47
2023-08-25T10:12:47.340Z,100248.25
2023-08-25T10:15:18.181Z,100261.53
2023-08-25T10:17:51.455Z,100282.72
2023-08-25T10:20:24.041Z,100298.75
2023-08-25T10:22:54.094Z,100298.31
2023-08-25T10:25:23.061Z,100277.28
2023-08-25T10:27:52.920Z,100299.56
2023-08-25T10:30:23.026Z,100287.69
2023-08-25T10:32:53.299Z,100265.63
2023-08-25T10:35:40.486Z,100249.41
2023-08-25T10:38:30.395Z,100253.97
2023-08-25T10:40:59.172Z,100268.53
2023-08-25T10:43:33.362Z,100266.66
2023-08-25T10:46:03.266Z,100261.25
2023-08-25T10:48:37.131Z,100288.28
2023-08-25T10:51:09.942Z,100312.63
2023-08-25T10:53:39.538Z,100304.53
2023-08-25T10:56:16.127Z,100303.91
2023-08-25T10:58:55.275Z,100294.38
2023-08-25T11:01:26.234Z,100281.69
2023-08-25T11:04:06.874Z,100265.66
2023-08-25T11:06:45.013Z,100294.78
2023-08-25T11:09:32.938Z,100280.66
2023-08-25T11:12:04.421Z,100274.84
2023-08-25T11:14:36.144Z,100283.38
2023-08-25T11:17:07.347Z,100282.53
2023-08-25T11:19:37.487Z,100274.03
2023-08-25T11:22:06.963Z,100274.25
2023-08-25T11:24:34.802Z,100300.66
2023-08-25T11:27:06.588Z,100301.91
2023-08-25T11:29:36.158Z,100294.19
2023-08-25T11:32:06.163Z,100295.25
2023-08-25T11:34:34.550Z,100288.44
2023-08-25T11:37:02.611Z,100299.22
2023-08-25T11:39:30.318Z,100296.53
2023-08-25T11:41:58.535Z,100296.94
2023-08-25T11:44:27.191Z,100294.22
2023-08-25T11:47:00.081Z,100289.88
2023-08-25T11:49:29.313Z,100308.16
2023-08-25T11:51:58.181Z,100304.81
2023-08-25T11:54:25.953Z,100298.00
2023-08-25T11:56:54.541Z,100254.13
2023-08-25T11:59:23.179Z,100228.78
2023-08-25T12:01:51.819Z,100197.22
2023-08-25T12:04:25.144Z,100185.41
2023-08-25T12:06:58.428Z,100153.84
2023-08-25T12:12:19.587Z,100172.56
2023-08-25T12:14:48.150Z,100168.19
2023-08-25T12:17:22.778Z,100187.09
2023-08-25T12:19:53.307Z,100189.16
2023-08-25T12:22:21.828Z,100165.50
2023-08-25T12:24:50.152Z,100162.16
2023-08-25T12:27:20.344Z,100161.09
2023-08-25T12:29:49.316Z,100180.84
2023-08-25T12:32:17.161Z,100206.00
2023-08-25T12:34:46.029Z,100216.38
2023-08-25T12:37:16.160Z,100188.94
2023-08-25T12:39:43.918Z,100154.44
2023-08-25T12:42:15.209Z,100134.28
2023-08-25T12:44:42.943Z,100131.16
2023-08-25T12:47:12.723Z,100132.59
2023-08-25T12:49:40.908Z,100143.38
2023-08-25T12:52:08.988Z,100156.88
2023-08-25T12:54:38.084Z,100138.75
2023-08-25T12:57:07.279Z,100150.59
2023-08-25T12:59:35.689Z,100180.28
2023-08-25T13:02:03.864Z,100192.31
2023-08-25T13:04:32.345Z,100168.53
2023-08-25T13:07:00.274Z,100173.31
2023-08-25T13:09:28.442Z,100170.78
2023-08-25T13:11:57.588Z,100162.88
2023-08-25T13:14:26.405Z,100141.38
2023-08-25T13:16:54.693Z,100126.16
2023-08-25T13:19:23.266Z,100135.25
2023-08-25T13:21:51.145Z,100114.78
2023-08-25T13:24:19.855Z,100116.63
2023-08-25T13:26:47.627Z,100139.03
2023-08-25T13:29:16.838Z,100158.81
2023-08-25T13:31:44.611Z,100167.91
2023-08-25T13:34:13.909Z,100160.16
2023-08-25T13:36:42.176Z,100154.31
2023-08-25T13:39:10.414Z,100149.28
2023-08-25T13:41:41.190Z,100148.84
2023-08-25T13:44:10.802Z,100158.16
2023-08-25T13:46:39.896Z,100160.44
2023-08-25T13:49:09.294Z,100145.78
2023-08-25T13:51:37.286Z,100129.03
2023-08-25T13:54:06.191Z,100129.53
2023-08-25T13:56:34.255Z,100138.44
2023-08-25T13:59:02.376Z,100141.91
2023-08-25T14:01:30.589Z,100159.09
2023-08-25T14:03:59.675Z,100159.50
2023-08-25T14:06:30.170Z,100161.03
2023-08-25T14:08:58.173Z,100156.00
2023-08-25T14:11:25.958Z,100140.41
2023-08-25T14:13:53.833Z,100130.66
2023-08-25T14:16:21.732Z,100131.75
2023-08-25T14:18:51.168Z,100133.53
2023-08-25T14:21:20.941Z,100133.66
2023-08-25T14:23:48.805Z,100134.38
2023-08-25T14:26:17.854Z,100134.28
2023-08-25T14:28:45.615Z,100140.56
2023-08-25T14:31:14.392Z,100126.63
2023-08-25T14:33:42.177Z,100123.34
2023-08-25T14:36:10.321Z,100129.22
2023-08-25T14:38:39.661Z,100127.25
2023-08-25T14:41:09.312Z,100130.66
2023-08-25T14:43:37.727Z,100134.22
2023-08-25T14:46:05.705Z,100140.13
2023-08-25T14:48:34.365Z,100135.75
2023-08-25T14:51:04.372Z,100140.63
2023-08-25T14:53:32.710Z,100132.22
2023-08-25T14:56:02.214Z,100127.84
2023-08-25T14:58:29.951Z,100127.72
2023-08-25T15:00:57.749Z,100139.50
2023-08-25T15:03:26.485Z,100124.16
2023-08-25T15:05:58.668Z,100138.44
2023-08-25T15:08:30.195Z,100137.25
2023-08-25T15:10:59.556Z,100142.34
2023-08-25T15:13:30.369Z,100150.94
2023-08-25T15:16:23.054Z,100147.03
2023-08-25T15:18:50.881Z,100159.31
2023-08-25T15:21:18.683Z,100150.44
2023-08-25T15:23:49.799Z,100150.75
2023-08-25T15:26:46.172Z,100148.41
2023-08-25T15:29:16.194Z,100139.53
2023-08-25T15:31:44.675Z,100130.41
2023-08-25T15:34:12.778Z,100133.00
2023-08-25T15:36:40.608Z,100128.50
2023-08-25T15:39:09.774Z,100128.09
2023-08-25T15:41:39.194Z,100122.53
2023-08-25T15:44:07.535Z,100117.38
2023-08-25T15:46:36.704Z,100106.75
2023-08-25T15:49:28.924Z,100109.69
2023-08-25T15:51:56.817Z,100110.53
2023-08-25T15:54:24.586Z,100105.69
2023-08-25T15:56:52.304Z,100097.56
2023-08-25T15:59:20.347Z,100102.75
2023-08-25T16:01:49.506Z,100110.19
2023-08-25T16:04:19.324Z,100105.81
2023-08-25T16:06:47.192Z,100109.75
2023-08-25T16:09:41.138Z,100112.22
2023-08-25T16:12:10.825Z,100105.97
2023-08-25T16:14:38.547Z,100101.38
2023-08-25T16:17:13.209Z,100108.91
2023-08-25T16:19:40.923Z,100108.69
2023-08-25T16:22:09.300Z,100105.34
2023-08-25T16:24:38.232Z,100107.25
2023-08-25T16:27:07.363Z,100119.38
2023-08-25T16:29:35.053Z,100110.88
2023-08-25T16:32:04.321Z,100114.88
2023-08-25T16:34:59.033Z,100117.59
2023-08-25T16:37:27.359Z,100115.56
2023-08-25T16:39:55.660Z,100112.28
2023-08-25T16:42:24.329Z,100111.66
2023-08-25T16:44:52.197Z,100103.75
2023-08-25T16:47:20.138Z,100088.56
2023-08-25T16:49:48.240Z,100093.41
2023-08-25T16:52:17.339Z,100093.84
2023-08-25T16:54:45.198Z,100084.06
2023-08-25T16:57:13.042Z,100068.84
2023-08-25T16:59:40.724Z,100078.88
2023-08-25T17:02:08.437Z,100077.22
2023-08-25T17:04:36.212Z,100076.59
2023-08-25T17:07:04.207Z,100067.66
2023-08-25T17:09:33.327Z,100061.41
2023-08-25T17:12:01.559Z,100060.59
2023-08-25T17:14:30.368Z,100076.03
2023-08-25T17:16:58.736Z,100072.50
2023-08-25T17:19:26.603Z,100078.16
2023-08-25T17:21:54.583Z,100078.97
2023-08-25T17:24:22.347Z,100075.44
2023-08-25T17:26:51.479Z,100080.84
2023-08-25T17:29:19.279Z,100082.72
2023-08-25T17:31:47.019Z,100093.78
2023-08-25T17:34:14.778Z,100093.19
2023-08-25T17:36:43.233Z,100085.31
2023-08-25T17:39:11.169Z,100089.28
2023-08-25T17:41:38.962Z,100077.84
2023-08-25T17:44:08.289Z,100087.25
2023-08-25T17:46:36.123Z,100085.59
2023-08-25T17:49:03.860Z,100092.31
2023-08-25T17:51:31.625Z,100085.47
2023-08-25T17:54:02.837Z,100080.03
2023-08-25T17:56:30.564Z,100091.94
2023-08-25T17:58:58.411Z,100097.81
2023-08-25T18:01:29.596Z,100097.41
2023-08-25T18:03:57.531Z,100098.47
2023-08-25T18:06:25.391Z,100094.94
2023-08-25T18:08:53.928Z,100088.91
2023-08-25T18:11:22.147Z,100096.19
2023-08-25T18:13:51.345Z,100098.75
2023-08-25T18:16:20.158Z,100096.28
2023-08-25T18:18:50.801Z,100097.56
2023-08-25T18:21:19.830Z,100105.31
2023-08-25T18:23:48.291Z,100115.56
2023-08-25T18:26:16.963Z,100116.22
2023-08-25T18:28:44.732Z,100120.22
2023-08-25T18:31:12.533Z,100118.78
2023-08-25T18:33:40.773Z,100120.91
2023-08-25T18:36:12.296Z,100128.63
2023-08-25T18:38:40.641Z,100137.81
2023-08-25T18:41:08.507Z,100139.09
2023-08-25T18:43:36.340Z,100139.91
2023-08-25T18:46:07.266Z,100144.72
2023-08-25T18:48:35.726Z,100135.75
2023-08-25T18:51:05.232Z,100140.59
2023-08-25T18:53:34.330Z,100141.88
2023-08-25T18:56:02.061Z,100142.91
2023-08-25T18:58:29.847Z,100143.38
2023-08-25T19:00:58.253Z,100144.41
2023-08-25T19:03:26.413Z,100144.63
2023-08-25T19:05:54.697Z,100148.63
2023-08-25T19:08:22.462Z,100138.84
2023-08-25T19:10:55.446Z,100144.47
2023-08-25T19:13:23.455Z,100150.09
2023-08-25T19:15:57.396Z,100141.16
2023-08-25T19:18:25.456Z,100152.44
2023-08-25T19:21:00.355Z,100152.63
2023-08-25T19:23:28.798Z,100157.69
2023-08-25T19:25:59.526Z,100149.78
2023-08-25T19:28:27.418Z,100157.28
2023-08-25T19:30:55.171Z,100157.75
2023-08-25T19:33:24.364Z,100162.75
2023-08-25T19:35:53.839Z,100164.88
2023-08-25T19:38:22.052Z,100173.38
2023-08-25T19:40:51.075Z,100158.44
2023-08-25T19:43:20.432Z,100168.66
2023-08-25T19:45:48.379Z,100160.97
2023-08-25T19:48:16.055Z,100168.47
2023-08-25T19:50:43.823Z,100165.59
2023-08-25T19:53:11.571Z,100168.53
2023-08-25T19:55:41.779Z,100161.06
2023-08-25T19:58:11.158Z,100167.53
2023-08-25T20:00:40.620Z,100166.06
2023-08-25T20:03:11.760Z,100175.22
2023-08-25T20:05:58.826Z,100164.66
2023-08-25T20:08:26.841Z,100159.66
2023-08-25T20:13:23.805Z,100145.13
2023-08-25T20:15:54.708Z,100148.06
2023-08-25T20:18:23.268Z,100140.19
2023-08-25T20:20:51.421Z,100146.84
2023-08-25T20:23:20.277Z,100146.22
2023-08-25T20:25:48.203Z,100145.63
2023-08-25T20:28:16.558Z,100145.22
2023-08-25T20:30:46.880Z,100150.03
2023-08-25T20:33:17.721Z,100148.56
2023-08-25T20:35:47.394Z,100154.22
2023-08-25T20:38:16.151Z,100151.72
2023-08-25T20:40:45.685Z,100145.91
2023-08-25T20:43:14.235Z,100151.75
2023-08-25T20:45:45.784Z,100152.19
2023-08-25T20:48:13.542Z,100155.34
2023-08-25T20:50:48.718Z,100157.63
2023-08-25T20:53:17.831Z,100160.75
2023-08-25T20:55:45.553Z,100164.72
2023-08-25T20:58:13.317Z,100170.56
2023-08-25T21:00:41.049Z,100176.34
2023-08-25T21:03:08.990Z,100176.59
2023-08-25T21:05:37.320Z,100188.03
2023-08-25T21:08:08.358Z,100187.59
2023-08-25T21:10:36.363Z,100192.63
2023-08-25T21:13:06.700Z,100195.97
2023-08-25T21:15:34.488Z,100198.88
2023-08-25T21:18:02.458Z,100208.22
2023-08-25T21:20:30.333Z,100209.50
2023-08-25T21:23:00.280Z,100207.19
2023-08-25T21:25:29.437Z,100204.94
2023-08-25T21:27:57.202Z,100207.63
2023-08-25T21:30:25.366Z,100209.50
2023-08-25T21:32:54.700Z,100207.84
2023-08-25T21:35:22.710Z,100209.72
2023-08-25T21:37:50.965Z,100208.88
2023-08-25T21:40:18.888Z,100199.13
2023-08-25T21:42:47.990Z,100201.00
2023-08-25T21:45:15.819Z,100196.63
2023-08-25T21:47:45.808Z,100189.56
2023-08-25T21:50:14.070Z,100179.00
2023-08-25T21:52:42.099Z,100181.69
2023-08-25T21:55:11.852Z,100180.00
2023-08-25T21:57:40.254Z,100167.56
2023-08-25T22:00:12.035Z,100166.94
2023-08-25T22:02:40.780Z,100178.78
2023-08-25T22:05:09.486Z,100189.19
2023-08-25T22:07:39.272Z,100190.63
2023-08-25T22:10:07.929Z,100201.03
2023-08-25T22:12:37.247Z,100199.56
2023-08-25T22:15:06.395Z,100210.81
2023-08-25T22:17:36.253Z,100204.97
2023-08-25T22:20:07.613Z,100205.19
2023-08-25T22:22:35.600Z,100210.38
2023-08-25T22:25:04.454Z,100198.56
2023-08-25T22:27:32.802Z,100191.50
2023-08-25T22:30:04.948Z,100193.59
2023-08-25T22:35:08.257Z,100213.31
2023-08-25T22:37:36.035Z,100225.16
2023-08-25T22:40:04.187Z,100232.81
2023-08-25T22:42:33.281Z,100229.28
2023-08-25T22:45:01.038Z,100234.06
2023-08-25T22:47:28.853Z,100237.56
2023-08-25T22:49:56.858Z,100216.84
2023-08-25T22:52:26.388Z,100218.69
2023-08-25T22:54:54.290Z,100224.25
2023-08-25T22:57:22.247Z,100236.09
2023-08-25T22:59:50.025Z,100236.31
2023-08-25T23:02:17.763Z,100238.19
2023-08-25T23:04:45.863Z,100222.22
2023-08-25T23:07:13.743Z,100218.69
2023-08-25T23:09:42.825Z,100231.53
2023-08-25T23:12:12.083Z,100237.16
2023-08-25T23:14:40.724Z,100243.59
2023-08-25T23:17:09.262Z,100250.03
2023-08-25T23:19:37.372Z,100241.09
2023-08-25T23:22:05.612Z,100241.09
2023-08-25T23:24:46.381Z,100236.53
2023-08-25T23:27:18.275Z,100232.16
2023-08-25T23:29:49.525Z,100231.13
2023-08-25T23:32:17.323Z,100239.63
2023-08-25T23:34:46.906Z,100247.09
2023-08-25T23:37:14.670Z,100247.28
2023-08-25T23:39:44.288Z,100242.94
2023-08-25T23:42:13.392Z,100226.13
2023-08-25T23:44:41.157Z,100232.56
2023-08-25T23:47:09.805Z,100234.44
2023-08-25T23:49:37.795Z,100232.78
2023-08-25T23:52:06.437Z,100224.88
2023-08-25T23:54:34.648Z,100220.53
2023-08-25T23:57:03.295Z,100225.53
2023-08-25T23:59:32.424Z,100224.03
